Ocean Spirit of Moray — MVXF5 — position and weather

sailwx.info

Track history (hours):
 
Tides and Currents Weather Stations Pressure Air Temp Water Temp Dewpoint Dewpoint Depression Visibility Wind Speed Wind Dir Waves Ship Positions

Ocean Spirit of Moray (United Kingdom)

Ship's website: http://www.gordonstoun.org.uk/

Last reported at 2016-Oct-05 10:33 UTC. Time now 2016-Dec-08 04:08 UTC.
Position N 56°44' W 005°14'.
Warning: this ship's position is months out of date.

Length 24 m; draft 3 m.

Type: Sailing vessel. MMSI: 232007590.

Date/timePositionNaut miles runAvg speedWind from/ knotsBaromVisibWave heightAir tempDewpointWater temp
2016-Oct-05 10:33N 56°44' W 005°14'34 0.7
2016-Oct-03 11:14N 57°16' W 005°38'4 6.1
2016-Oct-03 10:33N 57°17' W 005°45'5 5.1
2016-Oct-03 09:33N 57°21' W 005°38'0 0.0
2016-Oct-03 04:19N 57°21' W 005°38'0 0.0
2016-Oct-01 22:31N 57°21' W 005°38'0 0.0
2016-Oct-01 15:22N 57°21' W 005°38'0 0.5
2016-Oct-01 14:33N 57°21' W 005°39'5 5.3
2016-Oct-01 13:33N 57°21' W 005°48'  
2016-Sep-28 08:28N 57°26' W 005°52'11 2.2
2016-Sep-28 03:30N 57°16' W 005°44'0 0.0
2016-Sep-28 02:32N 57°16' W 005°44'0 0.0
2016-Sep-28 01:20N 57°16' W 005°44'0 0.0
2016-Sep-27 23:26N 57°16' W 005°44'0 0.0
2016-Sep-27 13:32N 57°16' W 005°43'5 1.7
2016-Sep-27 10:33N 57°21' W 005°44'  
Track history (hours):
 
Tides and Currents Weather Stations Pressure Air Temp Water Temp Dewpoint Dewpoint Depression Visibility Wind Speed Wind Dir Waves Ship Positions

Ocean Spirit of Moray (United Kingdom)

Ship's website: http://www.gordonstoun.org.uk/

Last reported at 2016-Oct-05 10:33 UTC. Time now 2016-Dec-08 04:08 UTC.
Position N 56°44' W 005°14'.
Warning: this ship's position is months out of date.

Length 24 m; draft 3 m.

Type: Sailing vessel. MMSI: 232007590.

Date/timePositionNaut miles runAvg speedWind from/ knotsBaromVisibWave heightAir tempDewpointWater temp
2016-Oct-05 10:33N 56°44' W 005°14'34 0.7
2016-Oct-03 11:14N 57°16' W 005°38'4 6.1
2016-Oct-03 10:33N 57°17' W 005°45'5 5.1
2016-Oct-03 09:33N 57°21' W 005°38'0 0.0
2016-Oct-03 04:19N 57°21' W 005°38'0 0.0
2016-Oct-01 22:31N 57°21' W 005°38'0 0.0
2016-Oct-01 15:22N 57°21' W 005°38'0 0.5
2016-Oct-01 14:33N 57°21' W 005°39'5 5.3
2016-Oct-01 13:33N 57°21' W 005°48'  
2016-Sep-28 08:28N 57°26' W 005°52'11 2.2
2016-Sep-28 03:30N 57°16' W 005°44'0 0.0
2016-Sep-28 02:32N 57°16' W 005°44'0 0.0
2016-Sep-28 01:20N 57°16' W 005°44'0 0.0
2016-Sep-27 23:26N 57°16' W 005°44'0 0.0
2016-Sep-27 13:32N 57°16' W 005°43'5 1.7
2016-Sep-27 10:33N 57°21' W 005°44'  

Dump ship's entire track history